Time,TemperatureF,DewpointF,PressureIn,WindDirection,WindDirectionDegrees,WindSpeedMPH,WindSpeedGustMPH,Humidity,HourlyPrecipIn,Conditions,Clouds,dailyrainin,SolarRadiationWatts/m^2,SoftwareType,DateUTC
2013-10-11 00:00:00,74.9,70.8,29.95,North,0,0.0,2.0,87,0.00,,CLR,0.00,0.00,VWS V14.01,2013-10-11 04:00:00,
2013-10-11 00:05:00,74.8,70.7,29.94,North,0,1.0,2.0,87,0.00,,CLR,0.00,0.00,VWS V14.01,2013-10-11 04:05:00,
2013-10-11 00:10:00,74.9,70.8,29.94,North,0,0.0,1.0,87,0.00,,CLR,0.00,0.00,VWS V14.01,2013-10-11 04:10:00,
2013-10-11 00:15:00,74.8,70.7,29.94,North,0,0.0,2.0,87,0.00,,CLR,0.00,0.00,VWS V14.01,2013-10-11 04:15:00,
2013-10-11 00:20:00,74.7,70.6,29.94,North,0,0.0,1.0,87,0.00,,CLR,0.00,0.00,VWS V14.01,2013-10-11 04:20:00,
2013-10-11 00:25:00,74.6,70.8,29.94,North,0,0.0,1.0,88,0.00,,CLR,0.00,0.00,VWS V14.01,2013-10-11 04:25:00,
2013-10-11 00:30:00,74.4,70.6,29.94,North,0,0.0,1.0,88,0.00,,CLR,0.00,0.00,VWS V14.01,2013-10-11 04:30:00,
2013-10-11 00:35:00,74.3,70.5,29.94,North,0,0.0,1.0,88,0.00,,CLR,0.00,0.00,VWS V14.01,2013-10-11 04:35:00,
2013-10-11 00:40:00,74.2,70.4,29.94,North,0,0.0,1.0,88,0.00,,CLR,0.00,0.00,VWS V14.01,2013-10-11 04:40:00,
2013-10-11 00:45:00,74.0,70.2,29.94,North,0,0.0,0.0,88,0.00,,CLR,0.00,0.00,VWS V14.01,2013-10-11 04:45:00,
2013-10-11 00:50:00,74.0,70.2,29.94,North,0,0.0,0.0,88,0.00,,CLR,0.00,0.00,VWS V14.01,2013-10-11 04:50:00,
2013-10-11 00:55:00,73.9,70.1,29.94,North,0,0.0,1.0,88,0.00,,CLR,0.00,0.00,VWS V14.01,2013-10-11 04:55:00,
2013-10-11 01:00:00,73.8,69.7,29.93,North,0,2.0,3.0,87,0.00,,CLR,0.00,0.00,VWS V14.01,2013-10-11 05:00:00,
2013-10-11 01:05:00,74.0,70.2,29.93,North,0,1.0,3.0,88,0.00,,CLR,0.00,0.00,VWS V14.01,2013-10-11 05:05:00,
2013-10-11 01:10:00,74.0,70.2,29.93,North,0,1.0,3.0,88,0.00,,CLR,0.00,0.00,VWS V14.01,2013-10-11 05:10:00,
2013-10-11 01:15:00,73.9,69.8,29.93,North,0,1.0,3.0,87,0.00,,CLR,0.00,0.00,VWS V14.01,2013-10-11 05:15:00,
2013-10-11 01:20:00,73.8,70.0,29.93,North,0,1.0,3.0,88,0.00,,CLR,0.00,0.00,VWS V14.01,2013-10-11 05:20:00,
2013-10-11 01:25:00,73.7,69.9,29.93,North,0,1.0,3.0,88,0.00,,CLR,0.00,0.00,VWS V14.01,2013-10-11 05:25:00,
2013-10-11 01:30:00,73.7,69.9,29.93,North,0,0.0,2.0,88,0.00,,CLR,0.00,0.00,VWS V14.01,2013-10-11 05:30:00,
2013-10-11 01:35:00,73.5,69.7,29.93,North,0,1.0,4.0,88,0.00,,CLR,0.00,0.00,VWS V14.01,2013-10-11 05:35:00,
2013-10-11 01:40:00,73.4,70.0,29.93,North,0,1.0,3.0,89,0.00,,CLR,0.00,0.00,VWS V14.01,2013-10-11 05:40:00,
2013-10-11 01:45:00,73.4,70.0,29.93,North,0,1.0,3.0,89,0.00,,CLR,0.00,0.00,VWS V14.01,2013-10-11 05:45:00,
2013-10-11 01:50:00,73.5,70.1,29.93,North,0,2.0,3.0,89,0.00,,CLR,0.00,0.00,VWS V14.01,2013-10-11 05:50:00,
2013-10-11 01:55:00,73.4,70.0,29.93,North,0,1.0,3.0,89,0.00,,CLR,0.00,0.00,VWS V14.01,2013-10-11 05:55:00,
2013-10-11 02:00:00,73.4,70.3,29.93,North,0,0.0,2.0,90,0.00,,CLR,0.00,0.00,VWS V14.01,2013-10-11 06:00:00,
2013-10-11 02:05:00,73.2,70.1,29.92,North,0,1.0,3.0,90,0.00,,CLR,0.00,0.00,VWS V14.01,2013-10-11 06:05:00,
2013-10-11 02:10:00,73.1,70.0,29.92,North,0,1.0,3.0,90,0.00,,CLR,0.00,0.00,VWS V14.01,2013-10-11 06:10:00,
2013-10-11 02:15:00,73.1,70.0,29.92,North,0,1.0,2.0,90,0.00,,CLR,0.00,0.00,VWS V14.01,2013-10-11 06:15:00,
2013-10-11 02:20:00,73.1,70.0,29.92,North,0,1.0,3.0,90,0.00,,CLR,0.00,0.00,VWS V14.01,2013-10-11 06:20:00,
2013-10-11 02:25:00,73.1,70.0,29.92,North,0,1.0,3.0,90,0.00,,CLR,0.00,0.00,VWS V14.01,2013-10-11 06:25:00,
2013-10-11 02:30:00,73.0,69.9,29.92,North,0,1.0,2.0,90,0.00,,CLR,0.00,0.00,VWS V14.01,2013-10-11 06:30:00,
2013-10-11 02:35:00,73.0,69.9,29.92,North,0,2.0,3.0,90,0.00,,CLR,0.00,0.00,VWS V14.01,2013-10-11 06:35:00,
2013-10-11 02:40:00,72.9,70.1,29.92,North,0,1.0,3.0,91,0.00,,CLR,0.00,0.00,VWS V14.01,2013-10-11 06:40:00,
2013-10-11 02:45:00,72.8,70.0,29.91,North,0,2.0,4.0,91,0.00,,CLR,0.00,0.00,VWS V14.01,2013-10-11 06:45:00,
2013-10-11 02:50:00,72.7,69.9,29.91,North,0,2.0,4.0,91,0.00,,CLR,0.00,0.00,VWS V14.01,2013-10-11 06:50:00,
2013-10-11 02:55:00,72.8,70.0,29.91,North,0,1.0,3.0,91,0.00,,CLR,0.00,0.00,VWS V14.01,2013-10-11 06:55:00,
2013-10-11 03:00:00,72.6,69.8,29.91,North,0,2.0,4.0,91,0.00,,CLR,0.00,0.00,VWS V14.01,2013-10-11 07:00:00,
2013-10-11 03:05:00,72.6,69.5,29.91,North,0,2.0,4.0,90,0.00,,CLR,0.00,0.00,VWS V14.01,2013-10-11 07:05:00,
2013-10-11 03:10:00,72.6,69.5,29.91,North,0,3.0,4.0,90,0.00,,CLR,0.00,0.00,VWS V14.01,2013-10-11 07:10:00,
2013-10-11 03:15:00,72.6,69.5,29.91,North,0,2.0,4.0,90,0.00,,CLR,0.00,0.00,VWS V14.01,2013-10-11 07:15:00,
2013-10-11 03:20:00,72.6,69.5,29.91,North,0,2.0,5.0,90,0.00,,CLR,0.00,0.00,VWS V14.01,2013-10-11 07:20:00,
2013-10-11 03:25:00,72.6,69.5,29.91,North,0,1.0,4.0,90,0.00,,CLR,0.00,0.00,VWS V14.01,2013-10-11 07:25:00,
2013-10-11 03:30:00,72.6,69.8,29.91,North,0,1.0,3.0,91,0.00,,CLR,0.00,0.00,VWS V14.01,2013-10-11 07:30:00,
2013-10-11 03:35:00,72.5,69.4,29.91,North,0,1.0,3.0,90,0.00,,CLR,0.00,0.00,VWS V14.01,2013-10-11 07:35:00,
2013-10-11 03:40:00,72.5,69.4,29.91,North,0,1.0,3.0,90,0.00,,CLR,0.00,0.00,VWS V14.01,2013-10-11 07:40:00,
2013-10-11 03:45:00,72.5,69.7,29.91,North,0,1.0,3.0,91,0.00,,CLR,0.00,0.00,VWS V14.01,2013-10-11 07:45:00,
2013-10-11 03:50:00,72.4,69.6,29.91,North,0,2.0,4.0,91,0.00,,CLR,0.00,0.00,VWS V14.01,2013-10-11 07:50:00,
2013-10-11 03:55:00,72.4,69.6,29.91,North,0,1.0,3.0,91,0.00,,CLR,0.00,0.00,VWS V14.01,2013-10-11 07:55:00,
2013-10-11 04:00:00,72.4,69.6,29.91,North,0,1.0,3.0,91,0.00,,CLR,0.00,0.00,VWS V14.01,2013-10-11 08:00:00,
2013-10-11 04:05:00,72.4,69.6,29.91,North,0,1.0,2.0,91,0.00,,CLR,0.00,0.00,VWS V14.01,2013-10-11 08:05:00,
2013-10-11 04:10:00,72.3,69.5,29.91,North,0,1.0,3.0,91,0.00,,CLR,0.00,0.00,VWS V14.01,2013-10-11 08:10:00,
2013-10-11 04:15:00,72.2,69.4,29.91,North,0,0.0,2.0,91,0.00,,CLR,0.00,0.00,VWS V14.01,2013-10-11 08:15:00,
2013-10-11 04:20:00,72.1,69.3,29.91,North,0,1.0,3.0,91,0.00,,CLR,0.00,0.00,VWS V14.01,2013-10-11 08:20:00,
2013-10-11 04:25:00,72.2,69.4,29.91,North,0,1.0,3.0,91,0.00,,CLR,0.00,0.00,VWS V14.01,2013-10-11 08:25:00,
2013-10-11 04:30:00,72.2,69.4,29.91,North,0,1.0,3.0,91,0.00,,CLR,0.00,0.00,VWS V14.01,2013-10-11 08:30:00,
2013-10-11 04:35:00,72.2,69.4,29.91,North,0,2.0,3.0,91,0.00,,CLR,0.00,0.00,VWS V14.01,2013-10-11 08:35:00,
2013-10-11 04:40:00,72.2,69.4,29.91,North,0,2.0,4.0,91,0.00,,CLR,0.00,0.00,VWS V14.01,2013-10-11 08:40:00,
2013-10-11 04:45:00,72.2,69.4,29.91,North,0,1.0,3.0,91,0.00,,CLR,0.00,0.00,VWS V14.01,2013-10-11 08:45:00,
2013-10-11 04:50:00,72.1,69.3,29.91,North,0,2.0,3.0,91,0.00,,CLR,0.00,0.00,VWS V14.01,2013-10-11 08:50:00,
2013-10-11 04:55:00,72.1,69.7,29.91,North,0,1.0,3.0,92,0.00,,CLR,0.00,0.00,VWS V14.01,2013-10-11 08:55:00,
2013-10-11 05:00:00,72.1,69.7,29.91,North,0,1.0,3.0,92,0.00,,CLR,0.00,0.00,VWS V14.01,2013-10-11 09:00:00,
2013-10-11 05:05:00,72.2,69.8,29.91,North,0,2.0,3.0,92,0.00,,CLR,0.00,0.00,VWS V14.01,2013-10-11 09:05:00,
2013-10-11 05:10:00,72.1,69.7,29.91,North,0,2.0,4.0,92,0.00,,CLR,0.00,0.00,VWS V14.01,2013-10-11 09:10:00,
2013-10-11 05:15:00,72.0,69.6,29.92,North,0,1.0,3.0,92,0.00,,CLR,0.00,0.00,VWS V14.01,2013-10-11 09:15:00,
2013-10-11 05:20:00,72.0,69.6,29.92,North,0,2.0,3.0,92,0.00,,CLR,0.00,0.00,VWS V14.01,2013-10-11 09:20:00,
2013-10-11 05:25:00,71.9,69.1,29.92,North,0,1.0,3.0,91,0.00,,CLR,0.00,0.00,VWS V14.01,2013-10-11 09:25:00,
2013-10-11 05:30:00,72.0,69.6,29.92,North,0,1.0,2.0,92,0.00,,CLR,0.00,0.00,VWS V14.01,2013-10-11 09:30:00,
2013-10-11 05:35:00,71.9,69.4,29.92,North,0,0.0,1.0,92,0.00,,CLR,0.00,0.00,VWS V14.01,2013-10-11 09:35:00,
2013-10-11 05:40:00,71.9,69.4,29.93,North,0,1.0,3.0,92,0.00,,CLR,0.00,0.00,VWS V14.01,2013-10-11 09:40:00,
2013-10-11 05:45:00,71.8,69.3,29.93,North,0,2.0,3.0,92,0.00,,CLR,0.00,0.00,VWS V14.01,2013-10-11 09:45:00,
2013-10-11 05:50:00,71.8,69.3,29.93,North,0,2.0,3.0,92,0.00,,CLR,0.00,0.00,VWS V14.01,2013-10-11 09:50:00,
2013-10-11 05:55:00,71.9,69.4,29.93,North,0,2.0,5.0,92,0.00,,CLR,0.00,0.00,VWS V14.01,2013-10-11 09:55:00,
2013-10-11 06:00:00,71.8,69.3,29.93,North,0,3.0,5.0,92,0.00,,CLR,0.00,0.00,VWS V14.01,2013-10-11 10:00:00,
2013-10-11 06:05:00,71.7,69.3,29.93,North,0,4.0,5.0,92,0.00,,CLR,0.00,0.00,VWS V14.01,2013-10-11 10:05:00,
2013-10-11 06:10:00,71.6,69.2,29.93,North,0,2.0,5.0,92,0.00,,CLR,0.00,0.00,VWS V14.01,2013-10-11 10:10:00,
2013-10-11 06:15:00,71.7,69.3,29.94,North,0,1.0,3.0,92,0.00,,CLR,0.00,0.00,VWS V14.01,2013-10-11 10:15:00,
2013-10-11 06:20:00,71.6,69.2,29.94,North,0,0.0,2.0,92,0.00,,CLR,0.00,0.00,VWS V14.01,2013-10-11 10:20:00,
2013-10-11 06:25:00,71.7,69.3,29.94,North,0,1.0,3.0,92,0.00,,CLR,0.00,0.00,VWS V14.01,2013-10-11 10:25:00,
2013-10-11 06:30:00,71.7,69.3,29.94,North,0,1.0,3.0,92,0.00,,CLR,0.00,0.00,VWS V14.01,2013-10-11 10:30:00,
2013-10-11 06:35:00,71.7,69.3,29.94,North,0,1.0,4.0,92,0.00,,CLR,0.00,0.00,VWS V14.01,2013-10-11 10:35:00,
2013-10-11 06:40:00,71.6,69.2,29.94,North,0,2.0,4.0,92,0.00,,CLR,0.00,0.00,VWS V14.01,2013-10-11 10:40:00,
2013-10-11 06:45:00,71.7,69.3,29.94,North,0,0.0,3.0,92,0.00,,CLR,0.00,0.00,VWS V14.01,2013-10-11 10:45:00,
2013-10-11 06:50:00,71.6,69.2,29.95,North,0,0.0,2.0,92,0.00,,CLR,0.00,0.00,VWS V14.01,2013-10-11 10:50:00,
2013-10-11 06:55:00,71.6,69.2,29.94,North,0,1.0,4.0,92,0.00,,CLR,0.00,0.00,VWS V14.01,2013-10-11 10:55:00,
2013-10-11 07:00:00,71.5,69.1,29.94,North,0,0.0,2.0,92,0.00,,CLR,0.00,0.00,VWS V14.01,2013-10-11 11:00:00,
2013-10-11 07:05:00,71.4,69.3,29.95,North,0,2.0,3.0,93,0.00,,CLR,0.00,0.00,VWS V14.01,2013-10-11 11:05:00,
2013-10-11 07:10:00,71.2,68.8,29.95,North,0,1.0,2.0,92,0.00,,CLR,0.00,0.00,VWS V14.01,2013-10-11 11:10:00,
2013-10-11 07:15:00,71.1,68.7,29.95,North,0,2.0,4.0,92,0.00,,CLR,0.00,0.00,VWS V14.01,2013-10-11 11:15:00,
2013-10-11 07:20:00,71.1,68.7,29.95,North,0,1.0,3.0,92,0.00,,CLR,0.00,0.00,VWS V14.01,2013-10-11 11:20:00,
2013-10-11 07:25:00,71.1,68.7,29.95,North,0,2.0,4.0,92,0.00,,CLR,0.00,5.00,VWS V14.01,2013-10-11 11:25:00,
2013-10-11 07:30:00,71.1,68.7,29.95,North,0,1.0,3.0,92,0.00,,CLR,0.00,9.00,VWS V14.01,2013-10-11 11:30:00,
2013-10-11 07:35:00,71.3,68.9,29.96,North,0,1.0,3.0,92,0.00,,CLR,0.00,12.00,VWS V14.01,2013-10-11 11:35:00,
2013-10-11 07:40:00,71.4,69.3,29.96,North,0,1.0,2.0,93,0.00,,CLR,0.00,17.00,VWS V14.01,2013-10-11 11:40:00,
2013-10-11 07:45:00,71.6,69.2,29.96,North,0,1.0,2.0,92,0.00,,CLR,0.00,27.00,VWS V14.01,2013-10-11 11:45:00,
2013-10-11 07:50:00,71.7,69.3,29.96,North,0,0.0,2.0,92,0.00,,CLR,0.00,37.00,VWS V14.01,2013-10-11 11:50:00,
2013-10-11 07:55:00,72.0,69.6,29.96,North,0,1.0,3.0,92,0.00,,CLR,0.00,43.00,VWS V14.01,2013-10-11 11:55:00,
2013-10-11 08:00:00,72.2,69.8,29.96,North,0,1.0,3.0,92,0.00,,CLR,0.00,56.00,VWS V14.01,2013-10-11 12:00:00,
2013-10-11 08:05:00,72.5,70.1,29.96,North,0,1.0,4.0,92,0.00,,CLR,0.00,72.00,VWS V14.01,2013-10-11 12:05:00,
2013-10-11 08:10:00,72.8,70.0,29.97,North,0,2.0,4.0,91,0.00,,CLR,0.00,88.00,VWS V14.01,2013-10-11 12:10:00,
2013-10-11 08:15:00,73.2,70.4,29.96,North,0,2.0,4.0,91,0.00,,CLR,0.00,103.00,VWS V14.01,2013-10-11 12:15:00,
2013-10-11 08:20:00,73.7,70.6,29.97,North,0,2.0,4.0,90,0.00,,CLR,0.00,120.00,VWS V14.01,2013-10-11 12:20:00,
2013-10-11 08:25:00,74.0,70.6,29.97,North,0,3.0,5.0,89,0.00,,CLR,0.00,135.00,VWS V14.01,2013-10-11 12:25:00,
2013-10-11 08:30:00,74.5,71.1,29.97,North,0,2.0,4.0,89,0.00,,CLR,0.00,150.00,VWS V14.01,2013-10-11 12:30:00,
2013-10-11 08:35:00,74.6,70.8,29.97,North,0,3.0,5.0,88,0.00,,CLR,0.00,165.00,VWS V14.01,2013-10-11 12:35:00,
2013-10-11 08:40:00,74.9,70.8,29.98,North,0,2.0,5.0,87,0.00,,CLR,0.00,181.00,VWS V14.01,2013-10-11 12:40:00,
2013-10-11 08:45:00,75.4,71.3,29.98,North,0,2.0,4.0,87,0.00,,CLR,0.00,197.00,VWS V14.01,2013-10-11 12:45:00,
2013-10-11 08:50:00,75.6,71.1,29.98,North,0,3.0,5.0,86,0.00,,CLR,0.00,213.00,VWS V14.01,2013-10-11 12:50:00,
2013-10-11 08:55:00,75.8,71.3,29.98,North,0,3.0,6.0,86,0.00,,CLR,0.00,229.00,VWS V14.01,2013-10-11 12:55:00,
2013-10-11 09:00:00,75.9,71.1,29.98,North,0,4.0,9.0,85,0.00,,CLR,0.00,246.00,VWS V14.01,2013-10-11 13:00:00,
2013-10-11 09:05:00,76.3,71.1,29.98,NNW,338,4.0,6.0,84,0.00,,CLR,0.00,262.00,VWS V14.01,2013-10-11 13:05:00,
2013-10-11 09:10:00,76.6,71.1,29.98,NNE,22,3.0,6.0,83,0.00,,CLR,0.00,279.00,VWS V14.01,2013-10-11 13:10:00,
2013-10-11 09:15:00,76.8,70.9,29.98,NNE,22,3.0,6.0,82,0.00,,CLR,0.00,295.00,VWS V14.01,2013-10-11 13:15:00,
2013-10-11 09:20:00,77.2,71.3,29.98,NNE,22,3.0,6.0,82,0.00,,CLR,0.00,310.00,VWS V14.01,2013-10-11 13:20:00,
2013-10-11 09:25:00,77.6,71.3,29.98,NNE,22,3.0,5.0,81,0.00,,CLR,0.00,321.00,VWS V14.01,2013-10-11 13:25:00,
2013-10-11 09:30:00,77.8,70.8,29.98,NNE,22,3.0,6.0,79,0.00,,CLR,0.00,330.00,VWS V14.01,2013-10-11 13:30:00,
2013-10-11 09:35:00,78.2,70.8,29.98,North,0,3.0,6.0,78,0.00,,CLR,0.00,340.00,VWS V14.01,2013-10-11 13:35:00,
2013-10-11 09:40:00,78.6,70.8,29.98,North,0,3.0,6.0,77,0.00,,CLR,0.00,346.00,VWS V14.01,2013-10-11 13:40:00,
2013-10-11 09:45:00,78.9,71.1,29.98,North,0,3.0,5.0,77,0.00,,CLR,0.00,352.00,VWS V14.01,2013-10-11 13:45:00,
2013-10-11 09:50:00,79.2,71.0,29.98,North,0,3.0,5.0,76,0.00,,CLR,0.00,357.00,VWS V14.01,2013-10-11 13:50:00,
2013-10-11 09:55:00,79.6,71.8,29.98,NNE,22,2.0,5.0,77,0.00,,CLR,0.00,360.00,VWS V14.01,2013-10-11 13:55:00,
2013-10-11 10:00:00,80.3,71.7,29.98,NNE,22,2.0,6.0,75,0.00,,CLR,0.00,362.00,VWS V14.01,2013-10-11 14:00:00,
2013-10-11 10:05:00,80.3,71.3,29.98,NNE,22,3.0,5.0,74,0.00,,CLR,0.00,363.00,VWS V14.01,2013-10-11 14:05:00,
2013-10-11 10:10:00,80.1,70.7,29.98,NNE,22,3.0,6.0,73,0.00,,CLR,0.00,365.00,VWS V14.01,2013-10-11 14:10:00,
2013-10-11 10:15:00,80.4,71.4,29.98,NNE,22,4.0,7.0,74,0.00,,CLR,0.00,363.00,VWS V14.01,2013-10-11 14:15:00,
2013-10-11 10:20:00,80.5,71.5,29.98,NNE,22,4.0,9.0,74,0.00,,CLR,0.00,365.00,VWS V14.01,2013-10-11 14:20:00,
2013-10-11 10:25:00,80.9,71.8,29.98,NNE,22,3.0,6.0,74,0.00,,CLR,0.00,366.00,VWS V14.01,2013-10-11 14:25:00,
2013-10-11 10:30:00,80.6,69.9,29.98,NNE,22,6.0,11.0,70,0.00,,CLR,0.00,390.00,VWS V14.01,2013-10-11 14:30:00,
2013-10-11 10:35:00,81.2,71.3,29.98,NNE,22,4.0,10.0,72,0.00,,CLR,0.00,429.00,VWS V14.01,2013-10-11 14:35:00,
2013-10-11 10:40:00,81.0,69.9,29.98,NNE,22,5.0,10.0,69,0.00,,CLR,0.00,450.00,VWS V14.01,2013-10-11 14:40:00,
2013-10-11 10:45:00,80.9,70.2,29.98,NNE,22,5.0,10.0,70,0.00,,CLR,0.00,459.00,VWS V14.01,2013-10-11 14:45:00,
2013-10-11 10:50:00,81.5,70.4,29.98,NNE,22,6.0,12.0,69,0.00,,CLR,0.00,475.00,VWS V14.01,2013-10-11 14:50:00,
2013-10-11 10:55:00,81.6,70.4,29.98,NNE,22,5.0,7.0,69,0.00,,CLR,0.00,498.00,VWS V14.01,2013-10-11 14:55:00,
2013-10-11 11:00:00,82.0,71.3,29.98,NE,45,3.0,7.0,70,0.00,,CLR,0.00,519.00,VWS V14.01,2013-10-11 15:00:00,
2013-10-11 11:05:00,82.1,70.9,29.98,NNE,22,5.0,9.0,69,0.00,,CLR,0.00,523.00,VWS V14.01,2013-10-11 15:05:00,
2013-10-11 11:10:00,82.3,70.7,29.98,North,0,7.0,11.0,68,0.00,,CLR,0.00,583.00,VWS V14.01,2013-10-11 15:10:00,
2013-10-11 11:15:00,81.9,69.0,29.98,NNE,22,5.0,10.0,65,0.00,,CLR,0.00,603.00,VWS V14.01,2013-10-11 15:15:00,
2013-10-11 11:20:00,82.3,69.8,29.98,NNE,22,4.0,9.0,66,0.00,,CLR,0.00,626.00,VWS V14.01,2013-10-11 15:20:00,
2013-10-11 11:25:00,82.8,69.8,29.98,NNE,22,4.0,10.0,65,0.00,,CLR,0.00,648.00,VWS V14.01,2013-10-11 15:25:00,
2013-10-11 11:30:00,82.9,70.8,29.98,North,0,4.0,10.0,67,0.00,,CLR,0.00,670.00,VWS V14.01,2013-10-11 15:30:00,
2013-10-11 11:35:00,82.9,70.8,29.98,NNE,22,3.0,8.0,67,0.00,,CLR,0.00,707.00,VWS V14.01,2013-10-11 15:35:00,
2013-10-11 11:40:00,83.4,70.4,29.98,NE,45,5.0,12.0,65,0.00,,CLR,0.00,713.00,VWS V14.01,2013-10-11 15:40:00,
2013-10-11 11:45:00,83.1,69.2,29.98,North,0,5.0,9.0,63,0.00,,CLR,0.00,742.00,VWS V14.01,2013-10-11 15:45:00,
2013-10-11 11:50:00,83.4,69.9,29.98,North,0,4.0,7.0,64,0.00,,CLR,0.00,775.00,VWS V14.01,2013-10-11 15:50:00,
2013-10-11 11:55:00,83.1,68.7,29.98,NNE,22,6.0,10.0,62,0.00,,CLR,0.00,791.00,VWS V14.01,2013-10-11 15:55:00,
2013-10-11 12:00:00,83.2,69.8,29.98,NNE,22,3.0,7.0,64,0.00,,CLR,0.00,739.00,VWS V14.01,2013-10-11 16:00:00,
2013-10-11 12:05:00,82.9,69.0,29.98,NNE,22,6.0,12.0,63,0.00,,CLR,0.00,757.00,VWS V14.01,2013-10-11 16:05:00,
2013-10-11 12:10:00,83.1,69.7,29.98,NNE,22,4.0,9.0,64,0.00,,CLR,0.00,788.00,VWS V14.01,2013-10-11 16:10:00,
2013-10-11 12:15:00,83.4,69.9,29.97,NNE,22,4.0,9.0,64,0.00,,CLR,0.00,807.00,VWS V14.01,2013-10-11 16:15:00,
2013-10-11 12:20:00,84.0,70.1,29.97,ENE,68,4.0,7.0,63,0.00,,CLR,0.00,832.00,VWS V14.01,2013-10-11 16:20:00,
2013-10-11 12:25:00,84.1,69.2,29.97,ENE,68,4.0,9.0,61,0.00,,CLR,0.00,843.00,VWS V14.01,2013-10-11 16:25:00,
2013-10-11 12:30:00,84.1,69.7,29.97,ENE,68,3.0,7.0,62,0.00,,CLR,0.00,848.00,VWS V14.01,2013-10-11 16:30:00,
2013-10-11 12:35:00,83.3,68.5,29.97,NNE,22,6.0,11.0,61,0.00,,CLR,0.00,261.00,VWS V14.01,2013-10-11 16:35:00,
2013-10-11 12:40:00,83.2,67.9,29.97,NNW,338,5.0,11.0,60,0.00,,CLR,0.00,387.00,VWS V14.01,2013-10-11 16:40:00,
2013-10-11 12:45:00,83.5,67.7,29.96,NE,45,4.0,7.0,59,0.00,,CLR,0.00,813.00,VWS V14.01,2013-10-11 16:45:00,
2013-10-11 12:50:00,83.9,68.5,29.96,NNE,22,3.0,7.0,60,0.00,,CLR,0.00,806.00,VWS V14.01,2013-10-11 16:50:00,
2013-10-11 12:55:00,83.8,68.0,29.96,NE,45,4.0,10.0,59,0.00,,CLR,0.00,836.00,VWS V14.01,2013-10-11 16:55:00,
2013-10-11 13:00:00,83.5,68.7,29.96,NNE,22,3.0,9.0,61,0.00,,CLR,0.00,666.00,VWS V14.01,2013-10-11 17:00:00,
2013-10-11 13:05:00,83.8,67.5,29.96,NNE,22,4.0,11.0,58,0.00,,CLR,0.00,821.00,VWS V14.01,2013-10-11 17:05:00,
2013-10-11 13:10:00,84.5,67.1,29.95,NNE,22,4.0,11.0,56,0.00,,CLR,0.00,814.00,VWS V14.01,2013-10-11 17:10:00,
2013-10-11 13:15:00,83.9,68.5,29.95,North,0,6.0,12.0,60,0.00,,CLR,0.00,182.00,VWS V14.01,2013-10-11 17:15:00,
2013-10-11 13:20:00,83.7,68.8,29.95,North,0,4.0,7.0,61,0.00,,CLR,0.00,452.00,VWS V14.01,2013-10-11 17:20:00,
2013-10-11 13:25:00,84.3,67.9,29.94,North,0,6.0,11.0,58,0.00,,CLR,0.00,842.00,VWS V14.01,2013-10-11 17:25:00,
2013-10-11 13:30:00,83.8,68.4,29.94,NNE,22,5.0,10.0,60,0.00,,CLR,0.00,829.00,VWS V14.01,2013-10-11 17:30:00,
2013-10-11 13:35:00,84.1,68.7,29.94,North,0,5.0,10.0,60,0.00,,CLR,0.00,670.00,VWS V14.01,2013-10-11 17:35:00,
2013-10-11 13:40:00,83.4,67.6,29.94,NNE,22,5.0,10.0,59,0.00,,CLR,0.00,117.00,VWS V14.01,2013-10-11 17:40:00,
2013-10-11 13:45:00,83.8,68.0,29.94,North,0,3.0,7.0,59,0.00,,CLR,0.00,516.00,VWS V14.01,2013-10-11 17:45:00,
2013-10-11 13:50:00,84.1,67.7,29.94,North,0,6.0,10.0,58,0.00,,CLR,0.00,227.00,VWS V14.01,2013-10-11 17:50:00,
2013-10-11 13:55:00,83.9,68.5,29.94,NNE,22,3.0,7.0,60,0.00,,CLR,0.00,474.00,VWS V14.01,2013-10-11 17:55:00,
2013-10-11 14:00:00,84.0,67.7,29.93,NNE,22,5.0,11.0,58,0.00,,CLR,0.00,883.00,VWS V14.01,2013-10-11 18:00:00,
2013-10-11 14:05:00,83.9,68.5,29.93,NNE,22,4.0,10.0,60,0.00,,CLR,0.00,223.00,VWS V14.01,2013-10-11 18:05:00,
2013-10-11 14:10:00,84.0,68.1,29.93,North,0,7.0,12.0,59,0.00,,CLR,0.00,570.00,VWS V14.01,2013-10-11 18:10:00,
2013-10-11 14:15:00,83.8,68.0,29.93,NNE,22,6.0,11.0,59,0.00,,CLR,0.00,356.00,VWS V14.01,2013-10-11 18:15:00,
2013-10-11 14:20:00,83.8,68.0,29.92,North,0,4.0,9.0,59,0.00,,CLR,0.00,815.00,VWS V14.01,2013-10-11 18:20:00,
2013-10-11 14:25:00,84.4,67.0,29.92,North,0,6.0,12.0,56,0.00,,CLR,0.00,806.00,VWS V14.01,2013-10-11 18:25:00,
2013-10-11 14:30:00,84.4,66.5,29.93,NNE,22,3.0,9.0,55,0.00,,CLR,0.00,795.00,VWS V14.01,2013-10-11 18:30:00,
2013-10-11 14:35:00,84.8,68.4,29.92,NNE,22,4.0,8.0,58,0.00,,CLR,0.00,811.00,VWS V14.01,2013-10-11 18:35:00,
2013-10-11 14:40:00,84.2,67.3,29.92,NNE,22,6.0,8.0,57,0.00,,CLR,0.00,489.00,VWS V14.01,2013-10-11 18:40:00,
2013-10-11 14:45:00,84.2,68.8,29.92,NNE,22,3.0,7.0,60,0.00,,CLR,0.00,756.00,VWS V14.01,2013-10-11 18:45:00,
2013-10-11 14:50:00,84.6,69.2,29.92,NNE,22,6.0,12.0,60,0.00,,CLR,0.00,747.00,VWS V14.01,2013-10-11 18:50:00,
2013-10-11 14:55:00,84.3,69.4,29.92,NE,45,5.0,10.0,61,0.00,,CLR,0.00,315.00,VWS V14.01,2013-10-11 18:55:00,
2013-10-11 15:00:00,84.8,70.3,29.92,NE,45,5.0,9.0,62,0.00,,CLR,0.00,769.00,VWS V14.01,2013-10-11 19:00:00,
2013-10-11 15:05:00,84.2,69.8,29.92,NNE,22,4.0,10.0,62,0.00,,CLR,0.00,156.00,VWS V14.01,2013-10-11 19:05:00,
2013-10-11 15:10:00,83.6,70.1,29.92,NNE,22,5.0,10.0,64,0.00,,CLR,0.00,148.00,VWS V14.01,2013-10-11 19:10:00,
2013-10-11 15:15:00,83.6,69.7,29.92,ENE,68,3.0,7.0,63,0.00,,CLR,0.00,434.00,VWS V14.01,2013-10-11 19:15:00,
2013-10-11 15:20:00,84.4,69.5,29.92,ENE,68,6.0,10.0,61,0.00,,CLR,0.00,708.00,VWS V14.01,2013-10-11 19:20:00,
2013-10-11 15:25:00,84.0,69.6,29.92,ENE,68,4.0,10.0,62,0.00,,CLR,0.00,137.00,VWS V14.01,2013-10-11 19:25:00,
2013-10-11 15:30:00,84.2,69.3,29.92,NE,45,3.0,13.0,61,0.00,,CLR,0.00,655.00,VWS V14.01,2013-10-11 19:30:00,
2013-10-11 15:35:00,83.7,69.8,29.92,NNE,22,8.0,14.0,63,0.00,,CLR,0.00,593.00,VWS V14.01,2013-10-11 19:35:00,
2013-10-11 15:40:00,83.8,68.9,29.92,NNE,22,5.0,11.0,61,0.00,,CLR,0.00,541.00,VWS V14.01,2013-10-11 19:40:00,
2013-10-11 15:45:00,83.8,69.9,29.92,NE,45,7.0,12.0,63,0.00,,CLR,0.00,501.00,VWS V14.01,2013-10-11 19:45:00,
2013-10-11 15:50:00,83.1,69.2,29.92,NNE,22,6.0,11.0,63,0.00,,CLR,0.00,364.00,VWS V14.01,2013-10-11 19:50:00,
2013-10-11 15:55:00,83.3,69.4,29.92,NE,45,6.0,14.0,63,0.00,,CLR,0.00,490.00,VWS V14.01,2013-10-11 19:55:00,
2013-10-11 16:00:00,83.7,69.3,29.92,ENE,68,5.0,13.0,62,0.00,,CLR,0.00,517.00,VWS V14.01,2013-10-11 20:00:00,
2013-10-11 16:05:00,83.0,68.7,29.92,NE,45,7.0,13.0,62,0.00,,CLR,0.00,237.00,VWS V14.01,2013-10-11 20:05:00,
2013-10-11 16:10:00,83.2,69.3,29.92,NE,45,5.0,11.0,63,0.00,,CLR,0.00,519.00,VWS V14.01,2013-10-11 20:10:00,
2013-10-11 16:15:00,83.5,69.1,29.92,NNE,22,6.0,14.0,62,0.00,,CLR,0.00,494.00,VWS V14.01,2013-10-11 20:15:00,
2013-10-11 16:20:00,82.9,68.6,29.92,NNE,22,7.0,13.0,62,0.00,,CLR,0.00,498.00,VWS V14.01,2013-10-11 20:20:00,
2013-10-11 16:25:00,83.0,68.7,29.92,ENE,68,6.0,13.0,62,0.00,,CLR,0.00,504.00,VWS V14.01,2013-10-11 20:25:00,
2013-10-11 16:30:00,83.4,69.0,29.91,ENE,68,4.0,11.0,62,0.00,,CLR,0.00,464.00,VWS V14.01,2013-10-11 20:30:00,
2013-10-11 16:35:00,83.2,68.4,29.92,ENE,68,6.0,11.0,61,0.00,,CLR,0.00,443.00,VWS V14.01,2013-10-11 20:35:00,
2013-10-11 16:40:00,82.9,68.6,29.92,ENE,68,6.0,12.0,62,0.00,,CLR,0.00,422.00,VWS V14.01,2013-10-11 20:40:00,
2013-10-11 16:45:00,82.9,69.9,29.92,NE,45,5.0,10.0,65,0.00,,CLR,0.00,408.00,VWS V14.01,2013-10-11 20:45:00,
2013-10-11 16:50:00,82.7,68.8,29.92,NE,45,5.0,10.0,63,0.00,,CLR,0.00,376.00,VWS V14.01,2013-10-11 20:50:00,
2013-10-11 16:55:00,82.5,68.6,29.91,ENE,68,6.0,12.0,63,0.00,,CLR,0.00,348.00,VWS V14.01,2013-10-11 20:55:00,
2013-10-11 17:00:00,82.6,69.2,29.92,ENE,68,5.0,13.0,64,0.00,,CLR,0.00,334.00,VWS V14.01,2013-10-11 21:00:00,
2013-10-11 17:05:00,82.7,69.3,29.91,ENE,68,6.0,11.0,64,0.00,,CLR,0.00,332.00,VWS V14.01,2013-10-11 21:05:00,
2013-10-11 17:10:00,82.7,69.3,29.91,NE,45,5.0,11.0,64,0.00,,CLR,0.00,337.00,VWS V14.01,2013-10-11 21:10:00,
2013-10-11 17:15:00,82.5,68.6,29.91,NNE,22,5.0,13.0,63,0.00,,CLR,0.00,326.00,VWS V14.01,2013-10-11 21:15:00,
2013-10-11 17:20:00,82.4,69.9,29.91,NE,45,5.0,9.0,66,0.00,,CLR,0.00,278.00,VWS V14.01,2013-10-11 21:20:00,
2013-10-11 17:25:00,82.1,68.7,29.91,NE,45,6.0,11.0,64,0.00,,CLR,0.00,264.00,VWS V14.01,2013-10-11 21:25:00,
2013-10-11 17:30:00,81.9,69.0,29.91,ENE,68,5.0,10.0,65,0.00,,CLR,0.00,239.00,VWS V14.01,2013-10-11 21:30:00,
2013-10-11 17:35:00,81.9,69.0,29.91,NNE,22,4.0,10.0,65,0.00,,CLR,0.00,220.00,VWS V14.01,2013-10-11 21:35:00,
2013-10-11 17:40:00,82.0,69.1,29.91,NNE,22,4.0,10.0,65,0.00,,CLR,0.00,207.00,VWS V14.01,2013-10-11 21:40:00,
2013-10-11 17:45:00,81.9,69.0,29.91,ENE,68,5.0,11.0,65,0.00,,CLR,0.00,187.00,VWS V14.01,2013-10-11 21:45:00,
2013-10-11 17:50:00,81.7,68.8,29.91,ENE,68,5.0,10.0,65,0.00,,CLR,0.00,170.00,VWS V14.01,2013-10-11 21:50:00,
2013-10-11 17:55:00,81.7,68.3,29.91,NE,45,4.0,8.0,64,0.00,,CLR,0.00,142.00,VWS V14.01,2013-10-11 21:55:00,
2013-10-11 18:00:00,81.8,69.3,29.91,NE,45,4.0,10.0,66,0.00,,CLR,0.00,120.00,VWS V14.01,2013-10-11 22:00:00,
2013-10-11 18:05:00,81.3,68.4,29.91,ENE,68,5.0,10.0,65,0.00,,CLR,0.00,99.00,VWS V14.01,2013-10-11 22:05:00,
2013-10-11 18:10:00,81.1,68.2,29.91,NE,45,5.0,12.0,65,0.00,,CLR,0.00,82.00,VWS V14.01,2013-10-11 22:10:00,
2013-10-11 18:15:00,81.0,68.6,29.91,ENE,68,3.0,8.0,66,0.00,,CLR,0.00,66.00,VWS V14.01,2013-10-11 22:15:00,
2013-10-11 18:20:00,80.9,68.9,29.91,NE,45,4.0,9.0,67,0.00,,CLR,0.00,53.00,VWS V14.01,2013-10-11 22:20:00,
2013-10-11 18:25:00,80.9,68.0,29.91,NE,45,3.0,7.0,65,0.00,,CLR,0.00,41.00,VWS V14.01,2013-10-11 22:25:00,
2013-10-11 18:30:00,80.7,68.3,29.91,ENE,68,5.0,10.0,66,0.00,,CLR,0.00,29.00,VWS V14.01,2013-10-11 22:30:00,
2013-10-11 18:35:00,80.6,68.2,29.91,ENE,68,5.0,11.0,66,0.00,,CLR,0.00,19.00,VWS V14.01,2013-10-11 22:35:00,
2013-10-11 18:40:00,80.5,68.1,29.92,NE,45,4.0,9.0,66,0.00,,CLR,0.00,14.00,VWS V14.01,2013-10-11 22:40:00,
2013-10-11 18:45:00,80.3,68.3,29.92,NNE,22,3.0,7.0,67,0.00,,CLR,0.00,11.00,VWS V14.01,2013-10-11 22:45:00,
2013-10-11 18:50:00,80.2,68.7,29.92,NE,45,4.0,8.0,68,0.00,,CLR,0.00,8.00,VWS V14.01,2013-10-11 22:50:00,
2013-10-11 18:55:00,80.0,68.1,29.92,ENE,68,5.0,10.0,67,0.00,,CLR,0.00,6.00,VWS V14.01,2013-10-11 22:55:00,
2013-10-11 19:00:00,80.0,68.1,29.92,ENE,68,4.0,10.0,67,0.00,,CLR,0.00,1.00,VWS V14.01,2013-10-11 23:00:00,
2013-10-11 19:05:00,79.9,68.0,29.92,ENE,68,3.0,7.0,67,0.00,,CLR,0.00,0.00,VWS V14.01,2013-10-11 23:05:00,
2013-10-11 19:10:00,79.7,67.8,29.92,ENE,68,3.0,9.0,67,0.00,,CLR,0.00,0.00,VWS V14.01,2013-10-11 23:10:00,
2013-10-11 19:15:00,79.7,68.2,29.92,NE,45,4.0,10.0,68,0.00,,CLR,0.00,0.00,VWS V14.01,2013-10-11 23:15:00,
2013-10-11 19:20:00,79.6,68.1,29.92,NE,45,3.0,6.0,68,0.00,,CLR,0.00,0.00,VWS V14.01,2013-10-11 23:20:00,
2013-10-11 19:25:00,79.4,68.3,29.92,ENE,68,3.0,6.0,69,0.00,,CLR,0.00,0.00,VWS V14.01,2013-10-11 23:25:00,
2013-10-11 19:30:00,79.4,68.8,29.92,ENE,68,3.0,7.0,70,0.00,,CLR,0.00,0.00,VWS V14.01,2013-10-11 23:30:00,
2013-10-11 19:35:00,79.2,68.6,29.92,NE,45,2.0,5.0,70,0.00,,CLR,0.00,0.00,VWS V14.01,2013-10-11 23:35:00,
2013-10-11 19:40:00,79.1,68.5,29.92,NE,45,2.0,5.0,70,0.00,,CLR,0.00,0.00,VWS V14.01,2013-10-11 23:40:00,
2013-10-11 19:45:00,79.0,68.4,29.92,ENE,68,3.0,6.0,70,0.00,,CLR,0.00,0.00,VWS V14.01,2013-10-11 23:45:00,
2013-10-11 19:50:00,78.9,68.3,29.93,ENE,68,2.0,5.0,70,0.00,,CLR,0.00,0.00,VWS V14.01,2013-10-11 23:50:00,
2013-10-11 19:55:00,78.9,68.3,29.93,ENE,68,2.0,5.0,70,0.00,,CLR,0.00,0.00,VWS V14.01,2013-10-11 23:55:00,
2013-10-11 20:00:00,78.8,68.2,29.93,ENE,68,1.0,3.0,70,0.00,,CLR,0.00,0.00,VWS V14.01,2013-10-12 00:00:00,
2013-10-11 20:05:00,78.7,68.1,29.93,ENE,68,1.0,2.0,70,0.00,,CLR,0.00,0.00,VWS V14.01,2013-10-12 00:05:00,
2013-10-11 20:10:00,78.6,68.0,29.93,ENE,68,1.0,3.0,70,0.00,,CLR,0.00,0.00,VWS V14.01,2013-10-12 00:10:00,
2013-10-11 20:15:00,78.5,68.3,29.94,NE,45,2.0,5.0,71,0.00,,CLR,0.00,0.00,VWS V14.01,2013-10-12 00:15:00,
2013-10-11 20:20:00,78.5,67.9,29.94,ENE,68,2.0,4.0,70,0.00,,CLR,0.00,0.00,VWS V14.01,2013-10-12 00:20:00,
2013-10-11 20:25:00,78.4,68.2,29.94,ENE,68,1.0,4.0,71,0.00,,CLR,0.00,0.00,VWS V14.01,2013-10-12 00:25:00,
2013-10-11 20:30:00,78.2,68.0,29.94,ENE,68,2.0,4.0,71,0.00,,CLR,0.00,0.00,VWS V14.01,2013-10-12 00:30:00,
2013-10-11 20:35:00,78.2,68.0,29.94,ENE,68,2.0,5.0,71,0.00,,CLR,0.00,0.00,VWS V14.01,2013-10-12 00:35:00,
2013-10-11 20:40:00,78.1,67.9,29.94,ENE,68,1.0,4.0,71,0.00,,CLR,0.00,0.00,VWS V14.01,2013-10-12 00:40:00,
2013-10-11 20:45:00,78.0,67.8,29.94,ENE,68,1.0,3.0,71,0.00,,CLR,0.00,0.00,VWS V14.01,2013-10-12 00:45:00,
2013-10-11 20:50:00,77.9,67.8,29.94,ENE,68,1.0,3.0,71,0.00,,CLR,0.00,0.00,VWS V14.01,2013-10-12 00:50:00,
2013-10-11 20:55:00,77.8,67.7,29.94,ENE,68,1.0,3.0,71,0.00,,CLR,0.00,0.00,VWS V14.01,2013-10-12 00:55:00,
2013-10-11 21:00:00,77.8,67.7,29.95,ENE,68,1.0,5.0,71,0.00,,CLR,0.00,0.00,VWS V14.01,2013-10-12 01:00:00,
2013-10-11 21:05:00,77.8,67.7,29.95,ENE,68,1.0,5.0,71,0.00,,CLR,0.00,0.00,VWS V14.01,2013-10-12 01:05:00,
2013-10-11 21:10:00,77.8,67.7,29.95,ENE,68,1.0,4.0,71,0.00,,CLR,0.00,0.00,VWS V14.01,2013-10-12 01:10:00,
2013-10-11 21:15:00,77.7,67.6,29.95,ENE,68,0.0,2.0,71,0.00,,CLR,0.00,0.00,VWS V14.01,2013-10-12 01:15:00,
2013-10-11 21:20:00,77.5,67.8,29.95,ENE,68,0.0,2.0,72,0.00,,CLR,0.00,0.00,VWS V14.01,2013-10-12 01:20:00,
2013-10-11 21:25:00,77.4,67.7,29.95,ENE,68,0.0,2.0,72,0.00,,CLR,0.00,0.00,VWS V14.01,2013-10-12 01:25:00,
2013-10-11 21:30:00,77.2,67.5,29.95,ENE,68,0.0,2.0,72,0.00,,CLR,0.00,0.00,VWS V14.01,2013-10-12 01:30:00,
2013-10-11 21:35:00,77.1,67.8,29.95,ENE,68,1.0,4.0,73,0.00,,CLR,0.00,0.00,VWS V14.01,2013-10-12 01:35:00,
2013-10-11 21:40:00,77.0,67.7,29.95,ENE,68,0.0,1.0,73,0.00,,CLR,0.00,0.00,VWS V14.01,2013-10-12 01:40:00,
2013-10-11 21:45:00,76.8,67.5,29.95,ENE,68,0.0,1.0,73,0.00,,CLR,0.00,0.00,VWS V14.01,2013-10-12 01:45:00,
2013-10-11 21:50:00,76.8,67.5,29.95,ENE,68,0.0,2.0,73,0.00,,CLR,0.00,0.00,VWS V14.01,2013-10-12 01:50:00,
2013-10-11 21:55:00,76.7,67.4,29.95,ENE,68,0.0,3.0,73,0.00,,CLR,0.00,0.00,VWS V14.01,2013-10-12 01:55:00,
2013-10-11 22:00:00,76.8,67.5,29.96,ENE,68,0.0,1.0,73,0.00,,CLR,0.00,0.00,VWS V14.01,2013-10-12 02:00:00,
2013-10-11 22:05:00,76.8,67.5,29.96,ENE,68,0.0,2.0,73,0.00,,CLR,0.00,0.00,VWS V14.01,2013-10-12 02:05:00,
2013-10-11 22:10:00,76.7,67.4,29.96,ENE,68,0.0,1.0,73,0.00,,CLR,0.00,0.00,VWS V14.01,2013-10-12 02:10:00,
2013-10-11 22:15:00,76.7,67.4,29.96,ENE,68,0.0,2.0,73,0.00,,CLR,0.00,0.00,VWS V14.01,2013-10-12 02:15:00,
2013-10-11 22:20:00,76.6,67.3,29.96,ENE,68,0.0,2.0,73,0.00,,CLR,0.00,0.00,VWS V14.01,2013-10-12 02:20:00,
2013-10-11 22:25:00,76.5,67.6,29.96,ENE,68,0.0,1.0,74,0.00,,CLR,0.00,0.00,VWS V14.01,2013-10-12 02:25:00,
2013-10-11 22:30:00,76.4,67.5,29.96,ENE,68,0.0,1.0,74,0.00,,CLR,0.00,0.00,VWS V14.01,2013-10-12 02:30:00,
2013-10-11 22:35:00,76.3,67.4,29.96,ENE,68,0.0,2.0,74,0.00,,CLR,0.00,0.00,VWS V14.01,2013-10-12 02:35:00,
2013-10-11 22:40:00,76.2,67.7,29.96,ENE,68,0.0,1.0,75,0.00,,CLR,0.00,0.00,VWS V14.01,2013-10-12 02:40:00,
2013-10-11 22:45:00,76.2,67.7,29.96,ENE,68,0.0,1.0,75,0.00,,CLR,0.00,0.00,VWS V14.01,2013-10-12 02:45:00,
2013-10-11 22:50:00,76.1,67.6,29.96,ENE,68,0.0,1.0,75,0.00,,CLR,0.00,0.00,VWS V14.01,2013-10-12 02:50:00,
2013-10-11 22:55:00,75.9,67.4,29.96,ENE,68,0.0,1.0,75,0.00,,CLR,0.00,0.00,VWS V14.01,2013-10-12 02:55:00,
2013-10-11 23:00:00,75.7,67.6,29.96,ENE,68,0.0,0.0,76,0.00,,CLR,0.00,0.00,VWS V14.01,2013-10-12 03:00:00,
2013-10-11 23:05:00,75.7,67.6,29.96,ENE,68,0.0,1.0,76,0.00,,CLR,0.00,0.00,VWS V14.01,2013-10-12 03:05:00,
2013-10-11 23:10:00,75.6,67.5,29.96,ENE,68,0.0,0.0,76,0.00,,CLR,0.00,0.00,VWS V14.01,2013-10-12 03:10:00,
2013-10-11 23:15:00,75.2,67.5,29.96,ENE,68,0.0,0.0,77,0.00,,CLR,0.00,0.00,VWS V14.01,2013-10-12 03:15:00,
2013-10-11 23:20:00,75.3,67.6,29.96,ENE,68,0.0,1.0,77,0.00,,CLR,0.00,0.00,VWS V14.01,2013-10-12 03:20:00,
2013-10-11 23:25:00,75.2,67.5,29.96,ENE,68,0.0,1.0,77,0.00,,CLR,0.00,0.00,VWS V14.01,2013-10-12 03:25:00,
2013-10-11 23:30:00,75.1,67.4,29.96,ENE,68,0.0,1.0,77,0.00,,CLR,0.00,0.00,VWS V14.01,2013-10-12 03:30:00,
2013-10-11 23:35:00,75.1,67.4,29.95,ENE,68,0.0,1.0,77,0.00,,CLR,0.00,0.00,VWS V14.01,2013-10-12 03:35:00,
2013-10-11 23:40:00,75.1,67.4,29.95,ENE,68,0.0,0.0,77,0.00,,CLR,0.00,0.00,VWS V14.01,2013-10-12 03:40:00,
2013-10-11 23:45:00,75.0,67.3,29.95,ENE,68,0.0,0.0,77,0.00,,CLR,0.00,0.00,VWS V14.01,2013-10-12 03:45:00,
2013-10-11 23:50:00,75.1,67.4,29.95,ENE,68,0.0,1.0,77,0.00,,CLR,0.00,0.00,VWS V14.01,2013-10-12 03:50:00,
2013-10-11 23:55:00,75.2,67.5,29.95,ENE,68,0.0,1.0,77,0.00,,CLR,0.00,0.00,VWS V14.01,2013-10-12 03:55:00,